createdAt,value
2019-03-11T00:03:18.826Z,100949.13
2019-03-11T00:08:10.673Z,100934.77
2019-03-11T00:13:02.726Z,100926.64
2019-03-11T00:17:54.592Z,100934.42
2019-03-11T00:22:46.581Z,100936.39
2019-03-11T00:27:38.525Z,100937.23
2019-03-11T00:32:30.310Z,100936.18
2019-03-11T00:37:22.210Z,100946.84
2019-03-11T00:42:15.098Z,100944.44
2019-03-11T00:47:06.715Z,100961.83
2019-03-11T00:51:58.602Z,100957.93
2019-03-11T00:56:50.581Z,100966.81
2019-03-11T01:01:42.107Z,100974.33
2019-03-11T01:06:33.608Z,100969.55
2019-03-11T01:11:25.487Z,100972.78
2019-03-11T01:16:17.433Z,100966.67
2019-03-11T01:21:11.097Z,100975.48
2019-03-11T01:26:02.465Z,100975.73
2019-03-11T01:30:54.301Z,100990.98
2019-03-11T01:35:45.835Z,100982.86
2019-03-11T01:40:38.729Z,100987.66
2019-03-11T01:45:30.106Z,100983.11
2019-03-11T01:50:22.146Z,100976.19
2019-03-11T01:55:14.085Z,100953.13
2019-03-11T02:00:06.010Z,100956.45
2019-03-11T02:04:57.985Z,100956.66
2019-03-11T02:09:51.965Z,100950.13
2019-03-11T02:14:43.498Z,100949.09
2019-03-11T02:19:35.350Z,100944.02
2019-03-11T02:24:27.110Z,100940.95
2019-03-11T02:29:19.045Z,100930.22
2019-03-11T02:34:10.602Z,100942.73
2019-03-11T02:39:02.536Z,100945.53
2019-03-11T02:43:54.253Z,100943.52
2019-03-11T02:48:46.108Z,100945.84
2019-03-11T02:53:38.056Z,100948.89
2019-03-11T02:58:29.902Z,100947.62
2019-03-11T03:03:21.640Z,100941.70
2019-03-11T03:08:13.507Z,100934.75
2019-03-11T03:13:05.027Z,100935.20
2019-03-11T03:17:58.657Z,100917.42
2019-03-11T03:22:50.011Z,100932.77
2019-03-11T03:27:42.083Z,100922.80
2019-03-11T03:32:35.852Z,100928.03
2019-03-11T03:37:27.096Z,100919.08
2019-03-11T03:42:19.197Z,100921.46
2019-03-11T03:47:11.088Z,100921.02
2019-03-11T03:52:02.898Z,100922.84
2019-03-11T03:56:55.999Z,100937.38
2019-03-11T04:01:47.375Z,100951.19
2019-03-11T04:06:39.283Z,100942.30
2019-03-11T04:11:30.983Z,100928.80
2019-03-11T04:16:22.767Z,100926.67
2019-03-11T04:21:14.626Z,100934.34
2019-03-11T04:26:06.647Z,100942.05
2019-03-11T04:31:00.377Z,100947.16
2019-03-11T04:35:51.541Z,100958.23
2019-03-11T04:40:43.804Z,100964.48
2019-03-11T04:45:35.744Z,100948.80
2019-03-11T04:50:27.618Z,100960.12
2019-03-11T04:55:19.571Z,100967.64
2019-03-11T05:00:11.527Z,100957.17
2019-03-11T05:05:03.218Z,100965.22
2019-03-11T05:09:55.003Z,100957.02
2019-03-11T05:14:46.677Z,100964.43
2019-03-11T05:19:38.719Z,100981.84
2019-03-11T05:24:30.634Z,100987.36
2019-03-11T05:29:23.256Z,100987.47
2019-03-11T05:34:15.050Z,100995.02
2019-03-11T05:39:06.857Z,101012.47
2019-03-11T05:44:00.590Z,101013.37
2019-03-11T05:48:52.004Z,101008.75
2019-03-11T05:53:43.622Z,101019.57
2019-03-11T05:58:35.207Z,101022.84
2019-03-11T06:03:27.072Z,101032.44
2019-03-11T06:08:18.943Z,101026.97
2019-03-11T06:13:10.029Z,101049.48
2019-03-11T06:18:01.143Z,101059.19
2019-03-11T06:23:09.642Z,101081.45
2019-03-11T06:28:13.241Z,101074.64
2019-03-11T06:33:01.894Z,101097.74
2019-03-11T06:37:52.769Z,101090.08
2019-03-11T06:42:41.046Z,101094.50
2019-03-11T06:47:32.478Z,101101.81
2019-03-11T06:52:21.405Z,101100.55
2019-03-11T06:57:14.606Z,101104.08
2019-03-11T07:02:04.539Z,101089.98
2019-03-11T07:06:54.422Z,101109.58
2019-03-11T07:11:44.049Z,101104.98
2019-03-11T07:16:33.516Z,101119.73
2019-03-11T07:21:23.627Z,101103.22
2019-03-11T07:26:15.662Z,101116.41
2019-03-11T07:31:06.591Z,101124.59
2019-03-11T07:35:55.590Z,101124.11
2019-03-11T07:40:47.523Z,101111.15
2019-03-11T07:45:39.343Z,101124.62
2019-03-11T07:50:31.326Z,101128.69
2019-03-11T07:55:23.051Z,101126.66
2019-03-11T08:00:16.911Z,101150.47
2019-03-11T08:05:08.158Z,101157.05
2019-03-11T08:10:00.074Z,101171.43
2019-03-11T08:14:52.018Z,101181.51
2019-03-11T08:19:43.621Z,101182.00
2019-03-11T08:24:35.524Z,101178.88
2019-03-11T08:29:27.324Z,101177.38
2019-03-11T08:34:19.135Z,101184.50
2019-03-11T08:39:10.894Z,101194.59
2019-03-11T08:44:03.275Z,101191.03
2019-03-11T08:48:57.617Z,101200.09
2019-03-11T08:53:49.035Z,101212.73
2019-03-11T08:58:41.001Z,101224.55
2019-03-11T09:03:32.698Z,101222.25
2019-03-11T09:08:24.634Z,101239.67
2019-03-11T09:13:16.705Z,101231.11
2019-03-11T09:18:08.356Z,101228.28
2019-03-11T09:23:00.229Z,101235.12
2019-03-11T09:27:53.723Z,101234.73
2019-03-11T09:32:45.322Z,101231.88
2019-03-11T09:37:38.152Z,101242.84
2019-03-11T09:42:29.738Z,101250.52
2019-03-11T09:47:21.980Z,101263.28
2019-03-11T09:52:13.882Z,101242.94
2019-03-11T09:57:05.678Z,101245.02
2019-03-11T10:01:58.017Z,101242.95
2019-03-11T10:06:52.504Z,101247.62
2019-03-11T10:11:46.412Z,101247.94
2019-03-11T10:16:38.379Z,101248.70
2019-03-11T10:21:32.618Z,101237.59
2019-03-11T10:26:24.561Z,101243.19
2019-03-11T10:31:16.995Z,101244.89
2019-03-11T10:36:09.321Z,101241.30
2019-03-11T10:41:01.920Z,101262.43
2019-03-11T10:45:53.387Z,101263.44
2019-03-11T10:50:45.380Z,101262.23
2019-03-11T10:55:37.874Z,101283.09
2019-03-11T11:00:29.844Z,101271.31
2019-03-11T11:05:23.151Z,101294.70
2019-03-11T11:10:15.437Z,101303.05
2019-03-11T11:15:07.497Z,101303.06
2019-03-11T11:20:05.425Z,101310.56
2019-03-11T11:24:56.092Z,101342.41
2019-03-11T11:29:47.624Z,101333.11
2019-03-11T11:34:41.986Z,101334.17
2019-03-11T11:39:33.743Z,101343.57
2019-03-11T11:44:26.367Z,101353.60
2019-03-11T11:49:19.053Z,101328.13
2019-03-11T11:54:12.825Z,101334.46
2019-03-11T11:59:04.406Z,101343.03
2019-03-11T12:03:56.158Z,101350.61
2019-03-11T12:08:48.111Z,101362.55
2019-03-11T12:13:39.871Z,101360.52
2019-03-11T12:18:31.861Z,101361.31
2019-03-11T12:23:23.577Z,101377.02
2019-03-11T12:28:15.637Z,101392.38
2019-03-11T12:33:09.564Z,101397.13
2019-03-11T12:38:03.149Z,101383.37
2019-03-11T12:42:54.854Z,101404.94
2019-03-11T12:47:47.087Z,101391.08
2019-03-11T12:52:38.648Z,101414.62
2019-03-11T12:57:31.588Z,101424.52
2019-03-11T13:02:23.091Z,101434.53
2019-03-11T13:07:15.003Z,101446.92
2019-03-11T13:12:07.141Z,101446.04
2019-03-11T13:16:59.120Z,101450.23
2019-03-11T13:21:51.649Z,101441.64
2019-03-11T13:26:45.062Z,101442.34
2019-03-11T13:31:37.169Z,101447.78
2019-03-11T13:36:28.970Z,101432.63
2019-03-11T13:41:20.487Z,101453.61
2019-03-11T13:46:12.648Z,101457.27
2019-03-11T13:51:04.596Z,101457.16
2019-03-11T13:55:57.079Z,101463.86
2019-03-11T14:00:58.455Z,101470.92
2019-03-11T14:05:48.905Z,101482.30
2019-03-11T14:10:40.747Z,101485.01
2019-03-11T14:15:32.286Z,101510.55
2019-03-11T14:20:24.237Z,101516.80
2019-03-11T14:25:16.024Z,101508.53
2019-03-11T14:30:07.914Z,101527.65
2019-03-11T14:34:59.997Z,101526.98
2019-03-11T14:39:51.831Z,101549.44
2019-03-11T14:44:43.528Z,101544.41
2019-03-11T14:49:35.455Z,101549.03
2019-03-11T14:55:21.520Z,101546.88
2019-03-11T15:00:13.781Z,101541.17
2019-03-11T15:05:05.966Z,101570.87
2019-03-11T15:09:58.020Z,101577.02
2019-03-11T15:14:50.078Z,101575.71
2019-03-11T15:19:41.942Z,101583.23
2019-03-11T15:24:34.468Z,101576.70
2019-03-11T15:29:26.556Z,101584.75
2019-03-11T15:34:19.482Z,101575.80
2019-03-11T15:39:11.492Z,101568.77
2019-03-11T15:44:03.917Z,101568.60
2019-03-11T15:48:56.417Z,101584.87
2019-03-11T15:53:48.453Z,101587.66
2019-03-11T15:58:40.325Z,101589.47
2019-03-11T16:03:37.952Z,101593.09
2019-03-11T16:08:38.912Z,101600.58
2019-03-11T16:13:31.359Z,101601.17
2019-03-11T16:18:24.098Z,101607.76
2019-03-11T16:23:16.234Z,101616.25
2019-03-11T16:28:07.976Z,101616.36
2019-03-11T16:33:02.732Z,101622.80
2019-03-11T16:37:53.953Z,101632.35
2019-03-11T16:42:45.898Z,101650.22
2019-03-11T16:47:38.012Z,101654.31
2019-03-11T16:52:29.864Z,101676.33
2019-03-11T16:57:21.602Z,101707.36
2019-03-11T17:02:13.201Z,101707.63
2019-03-11T17:07:04.722Z,101722.73
2019-03-11T17:11:56.528Z,101730.05
2019-03-11T17:16:50.700Z,101760.55
2019-03-11T17:21:42.089Z,101774.88
2019-03-11T17:26:33.720Z,101789.22
2019-03-11T17:31:25.672Z,101795.40
2019-03-11T17:36:17.394Z,101793.67
2019-03-11T17:41:09.356Z,101796.14
2019-03-11T17:46:01.153Z,101816.05
2019-03-11T17:50:53.110Z,101830.37
2019-03-11T17:55:44.891Z,101840.73
2019-03-11T18:00:36.945Z,101849.25
2019-03-11T18:05:28.657Z,101863.25
2019-03-11T18:10:20.668Z,101860.47
2019-03-11T18:15:14.565Z,101863.59
2019-03-11T18:20:06.273Z,101883.19
2019-03-11T18:24:58.193Z,101872.41
2019-03-11T18:29:50.312Z,101893.34
2019-03-11T18:34:42.491Z,101926.64
2019-03-11T18:39:35.240Z,101930.82
2019-03-11T18:44:29.079Z,101959.42
2019-03-11T18:49:20.245Z,101948.20
2019-03-11T18:54:13.209Z,101962.41
2019-03-11T18:59:04.897Z,101962.98
2019-03-11T19:03:57.024Z,101959.48
2019-03-11T19:08:49.048Z,101971.32
2019-03-11T19:13:41.196Z,101974.48
2019-03-11T19:18:35.237Z,101980.26
2019-03-11T19:23:26.970Z,101982.51
2019-03-11T19:28:19.157Z,101984.95
2019-03-11T19:33:12.882Z,101997.81
2019-03-11T19:38:04.595Z,101997.86
2019-03-11T19:42:58.667Z,102012.32
2019-03-11T19:47:50.149Z,102019.64
2019-03-11T19:52:42.134Z,102016.55
2019-03-11T19:57:34.114Z,102023.88
2019-03-11T20:02:26.353Z,102039.86
2019-03-11T20:07:18.745Z,102039.28
2019-03-11T20:12:10.675Z,102045.80
2019-03-11T20:17:02.798Z,102056.30
2019-03-11T20:21:55.088Z,102054.13
2019-03-11T20:26:46.978Z,102065.65
2019-03-11T20:31:38.932Z,102061.99
2019-03-11T20:36:31.079Z,102080.34
2019-03-11T20:41:22.978Z,102083.23
2019-03-11T20:46:14.882Z,102087.41
2019-03-11T20:51:06.969Z,102091.23
2019-03-11T20:55:59.576Z,102101.65
2019-03-11T21:00:51.493Z,102099.62
2019-03-11T21:05:43.478Z,102102.00
2019-03-11T21:10:35.581Z,102125.47
2019-03-11T21:15:27.873Z,102113.89
2019-03-11T21:20:19.860Z,102121.29
2019-03-11T21:25:11.738Z,102113.66
2019-03-11T21:30:02.806Z,102119.22
2019-03-11T21:34:54.870Z,102122.78
2019-03-11T21:39:47.313Z,102124.09
2019-03-11T21:44:39.219Z,102124.92
2019-03-11T21:49:31.370Z,102126.02
2019-03-11T21:54:22.545Z,102133.19
2019-03-11T21:59:14.134Z,102135.66
2019-03-11T22:04:04.843Z,102140.02
2019-03-11T22:08:55.774Z,102148.94
2019-03-11T22:13:47.273Z,102148.87
2019-03-11T22:18:37.591Z,102151.06
2019-03-11T22:23:28.540Z,102158.16
2019-03-11T22:28:19.482Z,102162.08
2019-03-11T22:33:10.543Z,102160.43
2019-03-11T22:38:01.601Z,102154.57
2019-03-11T22:42:53.675Z,102168.20
2019-03-11T22:47:47.648Z,102158.59
2019-03-11T22:52:38.880Z,102172.92
2019-03-11T22:57:31.559Z,102172.33
2019-03-11T23:02:23.206Z,102178.95
2019-03-11T23:07:15.120Z,102175.55
2019-03-11T23:12:06.995Z,102171.33
2019-03-11T23:16:59.194Z,102161.80
2019-03-11T23:21:51.020Z,102155.16
2019-03-11T23:26:41.971Z,102145.78
2019-03-11T23:31:34.036Z,102144.82
2019-03-11T23:36:26.827Z,102139.14
2019-03-11T23:41:18.296Z,102135.48
2019-03-11T23:46:10.691Z,102132.87
2019-03-11T23:51:02.512Z,102119.23
2019-03-11T23:55:54.552Z,102122.50
